createdAt,value
2019-02-05T00:00:33.465Z,16.53
2019-02-05T00:03:01.757Z,19.90
2019-02-05T00:05:30.016Z,20.60
2019-02-05T00:07:58.261Z,17.77
2019-02-05T00:10:26.517Z,18.63
2019-02-05T00:12:54.842Z,18.37
2019-02-05T00:15:23.084Z,17.83
2019-02-05T00:17:51.818Z,16.87
2019-02-05T00:20:20.053Z,17.93
2019-02-05T00:22:49.272Z,18.30
2019-02-05T00:25:17.526Z,18.90
2019-02-05T00:27:45.781Z,20.50
2019-02-05T00:30:15.475Z,19.43
2019-02-05T00:32:44.106Z,20.77
2019-02-05T00:35:12.346Z,16.93
2019-02-05T00:37:40.604Z,19.73
2019-02-05T00:40:13.678Z,16.17
2019-02-05T00:42:42.001Z,19.20
2019-02-05T00:45:33.938Z,19.40
2019-02-05T00:48:02.199Z,15.57
2019-02-05T00:50:30.451Z,15.27
2019-02-05T00:52:58.708Z,16.80
2019-02-05T00:55:26.963Z,14.73
2019-02-05T00:57:55.217Z,16.97
2019-02-05T01:00:32.040Z,19.53
2019-02-05T01:03:00.462Z,16.40
2019-02-05T01:05:28.797Z,17.77
2019-02-05T01:07:57.120Z,18.60
2019-02-05T01:10:25.432Z,20.27
2019-02-05T01:12:55.033Z,17.77
2019-02-05T01:15:24.809Z,19.77
2019-02-05T01:17:53.059Z,16.30
2019-02-05T01:20:22.145Z,20.17
2019-02-05T01:22:50.410Z,19.23
2019-02-05T01:25:19.720Z,18.70
2019-02-05T01:27:48.342Z,19.67
2019-02-05T01:30:19.514Z,18.13
2019-02-05T01:32:47.784Z,21.00
2019-02-05T01:35:16.037Z,20.47
2019-02-05T01:37:44.285Z,21.87
2019-02-05T01:40:17.953Z,17.40
2019-02-05T01:42:46.211Z,21.13
2019-02-05T01:45:16.200Z,23.80
2019-02-05T01:47:44.516Z,23.60
2019-02-05T01:50:15.823Z,19.10
2019-02-05T01:52:44.065Z,18.50
2019-02-05T01:55:12.321Z,20.47
2019-02-05T01:57:40.953Z,19.83
2019-02-05T02:00:12.412Z,23.83
2019-02-05T02:02:40.665Z,17.13
2019-02-05T02:05:09.109Z,27.30
2019-02-05T02:07:37.348Z,21.27
2019-02-05T02:10:08.869Z,20.63
2019-02-05T02:12:37.938Z,17.53
2019-02-05T02:15:08.542Z,24.63
2019-02-05T02:17:36.781Z,21.37
2019-02-05T02:20:14.284Z,22.27
2019-02-05T02:22:42.523Z,22.33
2019-02-05T02:25:12.368Z,23.17
2019-02-05T02:27:40.815Z,19.53
2019-02-05T02:30:30.106Z,22.10
2019-02-05T02:32:58.547Z,17.67
2019-02-05T02:35:26.989Z,23.23
2019-02-05T02:37:55.806Z,20.33
2019-02-05T02:40:24.277Z,22.30
2019-02-05T02:42:52.765Z,17.97
2019-02-05T02:45:21.202Z,20.00
2019-02-05T02:47:49.653Z,19.37
2019-02-05T02:50:22.715Z,24.07
2019-02-05T02:52:51.619Z,22.17
2019-02-05T02:55:20.073Z,20.97
2019-02-05T02:57:48.574Z,23.10
2019-02-05T03:00:21.426Z,19.90
2019-02-05T03:02:51.403Z,19.23
2019-02-05T03:05:22.122Z,19.60
2019-02-05T03:07:50.623Z,24.93
2019-02-05T03:10:29.967Z,19.17
2019-02-05T03:12:58.468Z,20.50
2019-02-05T03:15:27.371Z,22.47
2019-02-05T03:17:55.946Z,23.47
2019-02-05T03:20:24.385Z,20.70
2019-02-05T03:22:53.196Z,21.10
2019-02-05T03:25:23.963Z,20.73
2019-02-05T03:27:53.681Z,19.93
2019-02-05T03:30:24.667Z,22.87
2019-02-05T03:32:55.123Z,24.47
2019-02-05T03:35:24.305Z,21.20
2019-02-05T03:37:52.894Z,19.90
2019-02-05T03:40:30.430Z,20.33
2019-02-05T03:42:59.362Z,28.17
2019-02-05T03:45:29.647Z,21.10
2019-02-05T03:48:02.971Z,22.33
2019-02-05T03:50:37.249Z,21.13
2019-02-05T03:53:11.610Z,20.17
2019-02-05T03:56:03.923Z,21.00
2019-02-05T03:59:12.549Z,20.87
2019-02-05T04:01:59.168Z,21.40
2019-02-05T04:04:53.483Z,21.70
2019-02-05T04:07:37.099Z,22.97
2019-02-05T04:10:26.739Z,21.70
2019-02-05T04:13:14.742Z,18.97
2019-02-05T04:15:57.546Z,20.87
2019-02-05T04:18:31.758Z,19.10
2019-02-05T04:21:03.289Z,21.77
2019-02-05T04:23:55.718Z,21.27
2019-02-05T04:26:45.198Z,22.10
2019-02-05T04:29:25.628Z,21.00
2019-02-05T04:32:09.290Z,20.23
2019-02-05T04:34:57.646Z,20.73
2019-02-05T04:37:34.910Z,20.33
2019-02-05T04:40:21.104Z,21.00
2019-02-05T04:43:03.979Z,19.67
2019-02-05T04:46:01.344Z,20.90
2019-02-05T04:48:55.368Z,19.70
2019-02-05T04:51:32.696Z,21.60
2019-02-05T04:54:15.875Z,19.43
2019-02-05T04:57:16.118Z,20.43
2019-02-05T05:00:21.837Z,21.37
2019-02-05T05:02:56.209Z,26.63
2019-02-05T05:05:36.710Z,17.93
2019-02-05T05:08:11.198Z,19.00
2019-02-05T05:10:39.723Z,21.00
2019-02-05T05:13:08.158Z,21.33
2019-02-05T05:15:36.599Z,20.47
2019-02-05T05:18:05.119Z,17.47
2019-02-05T05:20:33.910Z,18.97
2019-02-05T05:23:02.611Z,23.37
2019-02-05T05:25:32.240Z,19.83
2019-02-05T05:28:09.751Z,24.17
2019-02-05T05:30:31.789Z,19.30
2019-02-05T05:33:19.559Z,22.30
2019-02-05T05:35:48.107Z,19.67
2019-02-05T05:38:16.551Z,22.07
2019-02-05T05:40:45.081Z,21.17
2019-02-05T05:43:13.590Z,21.03
2019-02-05T05:45:42.109Z,25.70
2019-02-05T05:48:10.933Z,23.97
2019-02-05T05:50:39.398Z,36.70
2019-02-05T05:53:08.275Z,37.07
2019-02-05T05:55:36.802Z,31.27
2019-02-05T05:58:05.389Z,22.30
2019-02-05T06:00:33.831Z,23.83
2019-02-05T06:03:02.620Z,23.70
2019-02-05T06:05:31.434Z,21.80
2019-02-05T06:07:59.894Z,21.97
2019-02-05T06:10:28.405Z,21.80
2019-02-05T06:12:56.847Z,19.93
2019-02-05T06:15:25.365Z,20.07
2019-02-05T06:17:53.802Z,22.23
2019-02-05T06:20:22.321Z,20.50
2019-02-05T06:22:51.229Z,21.20
2019-02-05T06:25:19.721Z,24.93
2019-02-05T06:27:48.237Z,21.43
2019-02-05T06:30:17.412Z,21.17
2019-02-05T06:32:46.013Z,19.47
2019-02-05T06:35:14.589Z,21.57
2019-02-05T06:37:43.183Z,17.03
2019-02-05T06:40:18.070Z,18.67
2019-02-05T06:42:46.509Z,19.60
2019-02-05T06:45:15.591Z,22.97
2019-02-05T06:47:44.107Z,20.53
2019-02-05T06:50:13.865Z,24.70
2019-02-05T06:52:42.322Z,25.20
2019-02-05T06:55:13.264Z,25.73
2019-02-05T06:57:41.713Z,30.70
2019-02-05T07:00:15.925Z,28.23
2019-02-05T07:02:45.264Z,27.00
2019-02-05T07:05:14.557Z,23.67
2019-02-05T07:07:43.084Z,25.40
2019-02-05T07:10:17.528Z,29.67
2019-02-05T07:12:45.983Z,26.43
2019-02-05T07:15:14.638Z,24.73
2019-02-05T07:17:49.686Z,24.40
2019-02-05T07:20:15.485Z,19.27
2019-02-05T07:22:44.170Z,25.40
2019-02-05T07:25:21.369Z,22.30
2019-02-05T07:27:50.184Z,24.37
2019-02-05T07:30:23.529Z,22.70
2019-02-05T07:32:52.185Z,27.03
2019-02-05T07:35:20.878Z,28.67
2019-02-05T07:37:49.674Z,25.77
2019-02-05T07:40:20.904Z,24.03
2019-02-05T07:42:49.897Z,26.87
2019-02-05T07:45:20.651Z,22.80
2019-02-05T07:47:49.164Z,24.00
2019-02-05T07:50:23.285Z,22.67
2019-02-05T07:52:51.882Z,24.20
2019-02-05T07:55:20.474Z,24.20
2019-02-05T07:57:49.004Z,22.53
2019-02-05T08:00:23.112Z,24.77
2019-02-05T08:02:51.697Z,24.37
2019-02-05T08:05:23.069Z,20.67
2019-02-05T08:07:51.697Z,22.97
2019-02-05T08:10:22.010Z,25.57
2019-02-05T08:12:50.889Z,19.20
2019-02-05T08:15:22.293Z,20.80
2019-02-05T08:17:51.242Z,21.90
2019-02-05T08:20:19.823Z,21.53
2019-02-05T08:22:48.292Z,20.73
2019-02-05T08:25:16.877Z,21.63
2019-02-05T08:27:45.481Z,19.83
2019-02-05T08:30:41.863Z,24.53
2019-02-05T08:33:10.389Z,21.83
2019-02-05T08:35:38.914Z,21.73
2019-02-05T08:38:07.513Z,21.47
2019-02-05T08:40:36.087Z,24.40
2019-02-05T08:43:05.448Z,21.87
2019-02-05T08:45:36.156Z,22.77
2019-02-05T08:48:07.033Z,24.27
2019-02-05T08:50:35.620Z,23.93
2019-02-05T08:53:04.640Z,23.13
2019-02-05T08:55:33.170Z,25.37
2019-02-05T08:58:04.530Z,22.27
2019-02-05T09:00:35.325Z,23.70
2019-02-05T09:03:04.311Z,21.27
2019-02-05T09:05:32.966Z,22.53
2019-02-05T09:08:01.498Z,22.47
2019-02-05T09:10:32.146Z,23.07
2019-02-05T09:13:00.686Z,22.47
2019-02-05T09:15:29.951Z,23.10
2019-02-05T09:17:58.645Z,23.20
2019-02-05T09:20:27.337Z,20.37
2019-02-05T09:22:56.005Z,24.93
2019-02-05T09:25:24.589Z,21.07
2019-02-05T09:27:53.113Z,56.07
2019-02-05T09:30:32.711Z,79.13
2019-02-05T09:33:03.970Z,34.87
2019-02-05T09:35:32.492Z,22.47
2019-02-05T09:38:01.038Z,24.20
2019-02-05T09:40:31.997Z,20.60
2019-02-05T09:43:00.889Z,18.07
2019-02-05T09:45:32.442Z,17.50
2019-02-05T09:48:01.500Z,21.40
2019-02-05T09:50:31.004Z,19.80
2019-02-05T09:53:00.317Z,17.43
2019-02-05T09:55:48.177Z,18.73
2019-02-05T09:58:18.332Z,16.23
2019-02-05T10:00:46.851Z,17.47
2019-02-05T10:03:15.320Z,19.90
2019-02-05T10:05:43.780Z,16.83
2019-02-05T10:08:12.225Z,21.13
2019-02-05T10:10:40.755Z,17.87
2019-02-05T10:13:09.352Z,18.23
2019-02-05T10:15:41.168Z,19.13
2019-02-05T10:18:29.051Z,19.50
2019-02-05T10:20:57.727Z,16.10
2019-02-05T10:23:26.263Z,18.87
2019-02-05T10:25:54.697Z,17.20
2019-02-05T10:28:23.770Z,16.43
2019-02-05T10:30:52.260Z,18.37
2019-02-05T10:33:20.805Z,19.00
2019-02-05T10:35:49.305Z,19.27
2019-02-05T10:38:37.099Z,18.50
2019-02-05T10:41:06.369Z,18.47
2019-02-05T10:43:34.905Z,19.43
2019-02-05T10:46:03.870Z,20.10
2019-02-05T10:48:32.398Z,20.77
2019-02-05T10:51:00.985Z,18.67
2019-02-05T10:53:29.425Z,18.80
2019-02-05T10:55:57.945Z,21.10
2019-02-05T10:58:26.863Z,20.23
2019-02-05T11:00:55.297Z,20.13
2019-02-05T11:03:23.816Z,22.33
2019-02-05T11:05:52.330Z,24.77
2019-02-05T11:08:20.859Z,20.70
2019-02-05T11:10:49.369Z,17.67
2019-02-05T11:13:18.965Z,20.00
2019-02-05T11:15:47.895Z,20.47
2019-02-05T11:18:16.416Z,23.13
2019-02-05T11:20:44.913Z,21.33
2019-02-05T11:23:13.429Z,17.63
2019-02-05T11:25:41.937Z,19.10
2019-02-05T11:28:29.810Z,19.37
2019-02-05T11:30:58.334Z,22.43
2019-02-05T11:33:26.858Z,24.50
2019-02-05T11:35:55.380Z,23.77
2019-02-05T11:38:23.927Z,19.43
2019-02-05T11:40:52.444Z,22.70
2019-02-05T11:43:20.966Z,21.00
2019-02-05T11:45:49.562Z,21.00
2019-02-05T11:48:18.735Z,21.63
2019-02-05T11:50:47.254Z,21.27
2019-02-05T11:53:15.713Z,22.57
2019-02-05T11:55:44.290Z,24.00
2019-02-05T11:58:12.751Z,22.87
2019-02-05T12:00:51.595Z,22.60
2019-02-05T12:03:20.482Z,19.03
2019-02-05T12:05:49.000Z,22.63
2019-02-05T12:08:18.602Z,22.27
2019-02-05T12:10:47.378Z,22.57
2019-02-05T12:13:15.829Z,28.53
2019-02-05T12:15:44.311Z,23.10
2019-02-05T12:18:12.935Z,25.63
2019-02-05T12:20:41.701Z,25.13
2019-02-05T12:23:10.232Z,28.50
2019-02-05T12:25:38.746Z,25.93
2019-02-05T12:28:07.286Z,23.23
2019-02-05T12:30:45.173Z,29.03
2019-02-05T12:33:11.091Z,27.10
2019-02-05T12:35:39.522Z,23.87
2019-02-05T12:38:08.614Z,23.90
2019-02-05T12:40:37.138Z,24.23
2019-02-05T12:43:05.799Z,22.70
2019-02-05T12:45:36.364Z,25.30
2019-02-05T12:48:05.315Z,27.13
2019-02-05T12:50:38.951Z,25.53
2019-02-05T12:53:07.626Z,23.37
2019-02-05T12:55:36.215Z,28.07
2019-02-05T12:58:05.385Z,26.93
2019-02-05T13:00:42.621Z,29.17
2019-02-05T13:03:11.885Z,27.37
2019-02-05T13:05:41.412Z,27.03
2019-02-05T13:08:10.448Z,28.57
2019-02-05T13:10:41.980Z,26.83
2019-02-05T13:13:10.625Z,32.87
2019-02-05T13:15:39.065Z,47.37
2019-02-05T13:18:07.638Z,54.73
2019-02-05T13:20:36.610Z,31.20
2019-02-05T13:23:05.981Z,31.87
2019-02-05T13:25:35.061Z,30.37
2019-02-05T13:28:05.348Z,25.33
2019-02-05T13:30:35.604Z,34.30
2019-02-05T13:33:05.477Z,33.13
2019-02-05T13:35:34.386Z,28.40
2019-02-05T13:38:02.815Z,28.80
2019-02-05T13:40:31.316Z,30.53
2019-02-05T13:43:00.103Z,31.80
2019-02-05T13:45:31.560Z,30.10
2019-02-05T13:48:00.226Z,28.07
2019-02-05T13:50:33.770Z,29.60
2019-02-05T13:53:02.632Z,27.47
2019-02-05T13:55:36.949Z,28.17
2019-02-05T13:58:05.822Z,26.23
2019-02-05T14:00:39.969Z,26.47
2019-02-05T14:03:28.117Z,28.43
2019-02-05T14:05:56.563Z,27.87
2019-02-05T14:08:25.082Z,28.60
2019-02-05T14:10:53.677Z,27.27
2019-02-05T14:13:22.169Z,25.47
2019-02-05T14:15:51.545Z,30.67
2019-02-05T14:18:22.531Z,31.03
2019-02-05T14:20:50.218Z,29.03
2019-02-05T14:23:18.717Z,27.93
2019-02-05T14:25:47.158Z,25.63
2019-02-05T14:28:15.597Z,28.63
2019-02-05T14:30:50.309Z,28.90
2019-02-05T14:33:18.818Z,28.47
2019-02-05T14:35:47.276Z,27.57
2019-02-05T14:38:15.724Z,30.03
2019-02-05T14:40:44.173Z,31.63
2019-02-05T14:43:12.611Z,30.03
2019-02-05T14:45:41.605Z,30.93
2019-02-05T14:48:10.188Z,29.83
2019-02-05T14:50:59.498Z,29.00
2019-02-05T14:53:28.179Z,31.83
2019-02-05T14:55:56.618Z,35.00
2019-02-05T14:58:25.061Z,32.23
2019-02-05T15:00:53.501Z,32.37
2019-02-05T15:03:21.942Z,34.87
2019-02-05T15:05:50.381Z,34.47
2019-02-05T15:08:18.831Z,33.47
2019-02-05T15:10:47.268Z,32.80
2019-02-05T15:13:16.286Z,29.77
2019-02-05T15:15:44.870Z,32.00
2019-02-05T15:18:13.304Z,33.33
2019-02-05T15:21:05.441Z,32.17
2019-02-05T15:23:34.279Z,31.93
2019-02-05T15:26:02.804Z,35.73
2019-02-05T15:28:31.321Z,31.90
2019-02-05T15:30:59.759Z,37.60
2019-02-05T15:33:35.854Z,36.40
2019-02-05T15:36:10.115Z,38.40
2019-02-05T15:38:38.544Z,34.90
2019-02-05T15:41:06.989Z,36.00
2019-02-05T15:43:35.421Z,31.03
2019-02-05T15:46:03.861Z,28.90
2019-02-05T15:48:32.307Z,33.13
2019-02-05T15:51:00.738Z,33.80
2019-02-05T15:53:29.173Z,31.03
2019-02-05T15:55:57.804Z,30.03
2019-02-05T15:58:45.598Z,38.13
2019-02-05T16:01:14.039Z,34.57
2019-02-05T16:03:42.847Z,33.07
2019-02-05T16:06:11.282Z,30.50
2019-02-05T16:08:39.705Z,25.40
2019-02-05T16:11:08.218Z,29.07
2019-02-05T16:13:36.648Z,26.13
2019-02-05T16:16:05.241Z,28.90
2019-02-05T16:18:33.672Z,27.83
2019-02-05T16:21:02.394Z,28.23
2019-02-05T16:23:30.830Z,26.83
2019-02-05T16:25:59.303Z,25.33
2019-02-05T16:28:27.751Z,22.53
2019-02-05T16:30:56.209Z,24.70
2019-02-05T16:33:43.996Z,27.20
2019-02-05T16:36:12.600Z,28.50
2019-02-05T16:38:41.095Z,33.40
2019-02-05T16:41:09.542Z,29.53
2019-02-05T16:43:37.986Z,32.17
2019-02-05T16:46:06.470Z,29.97
2019-02-05T16:48:35.522Z,27.70
2019-02-05T16:51:04.357Z,30.53
2019-02-05T16:53:32.875Z,30.87
2019-02-05T16:56:01.345Z,31.13
2019-02-05T16:58:29.794Z,37.33
2019-02-05T17:00:58.257Z,36.60
2019-02-05T17:03:26.705Z,38.53
2019-02-05T17:05:55.410Z,31.00
2019-02-05T17:08:23.863Z,34.50
2019-02-05T17:10:52.403Z,30.87
2019-02-05T17:13:20.922Z,34.20
2019-02-05T17:15:49.457Z,30.63
2019-02-05T17:18:23.813Z,33.80
2019-02-05T17:20:48.094Z,32.73
2019-02-05T17:23:16.543Z,33.10
2019-02-05T17:25:44.998Z,38.50
2019-02-05T17:28:13.443Z,32.40
2019-02-05T17:30:41.898Z,35.17
2019-02-05T17:33:10.350Z,34.43
2019-02-05T17:35:38.968Z,36.13
2019-02-05T17:38:09.559Z,39.57
2019-02-05T17:40:38.371Z,37.30
2019-02-05T17:43:07.199Z,43.63
2019-02-05T17:45:38.957Z,32.43
2019-02-05T17:48:12.677Z,35.77
2019-02-05T17:50:41.514Z,36.13
2019-02-05T17:53:09.965Z,34.93
2019-02-05T17:55:38.427Z,41.63
2019-02-05T17:58:06.934Z,38.63
2019-02-05T18:00:37.158Z,40.70
2019-02-05T18:03:06.079Z,42.80
2019-02-05T18:05:35.027Z,61.43
2019-02-05T18:08:03.990Z,84.83
2019-02-05T18:10:32.429Z,74.50
2019-02-05T18:13:01.056Z,61.20
2019-02-05T18:15:33.937Z,45.37
2019-02-05T18:18:02.462Z,41.20
2019-02-05T18:20:30.978Z,37.00
2019-02-05T18:22:59.459Z,39.77
2019-02-05T18:25:27.954Z,38.40
2019-02-05T18:27:56.431Z,40.43
2019-02-05T18:30:29.661Z,42.03
2019-02-05T18:33:03.753Z,41.93
2019-02-05T18:35:28.346Z,47.80
2019-02-05T18:37:57.734Z,47.87
2019-02-05T18:40:27.991Z,46.07
2019-02-05T18:42:56.583Z,48.83
2019-02-05T18:45:25.052Z,46.13
2019-02-05T18:47:53.559Z,47.57
2019-02-05T18:50:27.723Z,46.23
2019-02-05T18:52:56.186Z,46.40
2019-02-05T18:55:27.688Z,52.43
2019-02-05T18:57:56.136Z,49.50
2019-02-05T19:00:29.830Z,65.77
2019-02-05T19:02:58.452Z,77.97
2019-02-05T19:05:27.434Z,66.87
2019-02-05T19:07:55.878Z,58.27
2019-02-05T19:10:29.785Z,61.57
2019-02-05T19:12:58.301Z,67.53
2019-02-05T19:15:32.151Z,61.40
2019-02-05T19:18:00.676Z,60.20
2019-02-05T19:20:30.751Z,60.27
2019-02-05T19:22:59.370Z,53.60
2019-02-05T19:25:32.673Z,54.57
2019-02-05T19:28:01.135Z,51.50
2019-02-05T19:30:31.201Z,53.57
2019-02-05T19:32:59.990Z,49.70
2019-02-05T19:35:28.429Z,49.97
2019-02-05T19:37:56.893Z,49.47
2019-02-05T19:40:25.338Z,48.57
2019-02-05T19:42:55.445Z,56.33
2019-02-05T19:45:43.285Z,79.20
2019-02-05T19:50:58.178Z,60.37
2019-02-05T19:53:26.710Z,89.00
2019-02-05T19:55:55.621Z,82.60
2019-02-05T19:58:24.151Z,56.37
2019-02-05T20:00:53.165Z,55.77
2019-02-05T20:03:21.631Z,70.63
2019-02-05T20:05:50.064Z,67.00
2019-02-05T20:08:18.509Z,54.47
2019-02-05T20:10:46.944Z,53.37
2019-02-05T20:13:15.391Z,50.63
2019-02-05T20:15:43.897Z,51.53
2019-02-05T20:18:12.733Z,53.67
2019-02-05T20:20:41.162Z,53.33
2019-02-05T20:23:09.602Z,51.87
2019-02-05T20:25:38.040Z,51.40
2019-02-05T20:28:06.497Z,55.50
2019-02-05T20:30:34.958Z,47.23
2019-02-05T20:33:03.410Z,147.60
2019-02-05T20:35:32.317Z,79.23
2019-02-05T20:38:00.756Z,58.17
2019-02-05T20:40:29.224Z,53.93
2019-02-05T20:42:57.782Z,52.80
2019-02-05T20:45:26.250Z,56.83
2019-02-05T20:47:56.043Z,55.30
2019-02-05T20:50:24.687Z,52.27
2019-02-05T20:52:53.509Z,54.80
2019-02-05T20:55:42.845Z,57.30
2019-02-05T20:58:11.289Z,53.90
2019-02-05T21:00:39.736Z,52.27
2019-02-05T21:03:08.254Z,48.17
2019-02-05T21:05:37.168Z,50.87
2019-02-05T21:08:05.782Z,51.67
2019-02-05T21:10:34.216Z,55.10
2019-02-05T21:13:02.661Z,53.33
2019-02-05T21:15:31.114Z,56.37
2019-02-05T21:17:59.560Z,101.07
2019-02-05T21:20:33.686Z,60.13
2019-02-05T21:23:00.937Z,59.93
2019-02-05T21:25:29.510Z,57.57
2019-02-05T21:27:58.626Z,54.97
2019-02-05T21:30:27.719Z,50.37
2019-02-05T21:32:56.230Z,53.53
2019-02-05T21:35:24.674Z,53.07
2019-02-05T21:37:53.126Z,50.63
2019-02-05T21:40:23.681Z,65.47
2019-02-05T21:42:52.329Z,60.43
2019-02-05T21:45:31.790Z,116.10
2019-02-05T21:48:00.305Z,67.53
2019-02-05T21:50:28.735Z,67.33
2019-02-05T21:52:57.566Z,55.27
2019-02-05T21:55:27.080Z,54.33
2019-02-05T21:57:55.813Z,53.77
2019-02-05T22:00:44.047Z,53.33
2019-02-05T22:03:12.568Z,53.60
2019-02-05T22:05:41.776Z,50.17
2019-02-05T22:08:10.219Z,54.80
2019-02-05T22:10:58.081Z,50.40
2019-02-05T22:13:26.671Z,57.00
2019-02-05T22:15:55.184Z,57.00
2019-02-05T22:18:23.703Z,56.60
2019-02-05T22:20:52.234Z,56.83
2019-02-05T22:23:21.079Z,57.87
2019-02-05T22:25:49.578Z,58.13
2019-02-05T22:28:20.526Z,55.40
2019-02-05T22:30:48.219Z,55.07
2019-02-05T22:33:16.765Z,59.60
2019-02-05T22:35:45.213Z,54.20
2019-02-05T22:38:13.644Z,53.30
2019-02-05T22:41:01.497Z,54.77
2019-02-05T22:43:30.018Z,55.73
2019-02-05T22:45:59.500Z,51.90
2019-02-05T22:48:47.859Z,48.53
2019-02-05T22:51:16.392Z,47.93
2019-02-05T22:53:44.968Z,50.87
2019-02-05T22:56:13.396Z,48.27
2019-02-05T22:58:42.313Z,54.50
2019-02-05T23:01:22.442Z,55.03
2019-02-05T23:03:54.620Z,54.80
2019-02-05T23:06:31.816Z,50.33
2019-02-05T23:09:04.286Z,48.73
2019-02-05T23:11:53.722Z,53.07
2019-02-05T23:14:22.236Z,54.67
2019-02-05T23:16:50.676Z,77.23
2019-02-05T23:19:19.399Z,72.90
2019-02-05T23:21:47.828Z,57.10
2019-02-05T23:24:16.285Z,51.67
2019-02-05T23:26:44.713Z,56.27
2019-02-05T23:29:13.158Z,55.23
2019-02-05T23:31:41.590Z,53.90
2019-02-05T23:34:10.043Z,50.77
2019-02-05T23:36:38.761Z,55.20
2019-02-05T23:39:07.732Z,55.90
2019-02-05T23:41:36.181Z,49.63
2019-02-05T23:44:05.059Z,46.67
2019-02-05T23:46:36.305Z,51.57
2019-02-05T23:49:05.594Z,55.50
2019-02-05T23:51:34.412Z,53.77
2019-02-05T23:54:02.938Z,54.70
2019-02-05T23:56:31.378Z,48.27
2019-02-05T23:58:59.817Z,51.03
